sensor_id;sensor_type;location;lat;lon;timestamp;P1;durP1;ratioP1;P2;durP2;ratioP2
22929;SDS011;11630;42.660;23.292;2023-06-22T00:01:44;9.03;;;8.13;;
22929;SDS011;11630;42.660;23.292;2023-06-22T00:04:14;9.67;;;7.60;;
22929;SDS011;11630;42.660;23.292;2023-06-22T00:06:45;7.40;;;6.70;;
22929;SDS011;11630;42.660;23.292;2023-06-22T00:09:15;10.73;;;7.20;;
22929;SDS011;11630;42.660;23.292;2023-06-22T00:11:46;7.77;;;6.97;;
22929;SDS011;11630;42.660;23.292;2023-06-22T00:14:18;9.80;;;7.93;;
22929;SDS011;11630;42.660;23.292;2023-06-22T00:16:48;8.80;;;8.00;;
22929;SDS011;11630;42.660;23.292;2023-06-22T00:19:19;8.87;;;8.07;;
22929;SDS011;11630;42.660;23.292;2023-06-22T00:21:50;11.67;;;9.57;;
22929;SDS011;11630;42.660;23.292;2023-06-22T00:24:21;10.57;;;9.27;;
22929;SDS011;11630;42.660;23.292;2023-06-22T00:26:51;10.60;;;8.40;;
22929;SDS011;11630;42.660;23.292;2023-06-22T00:29:22;9.17;;;7.73;;
22929;SDS011;11630;42.660;23.292;2023-06-22T00:31:53;11.40;;;7.57;;
22929;SDS011;11630;42.660;23.292;2023-06-22T00:34:24;11.37;;;8.83;;
22929;SDS011;11630;42.660;23.292;2023-06-22T00:36:55;10.90;;;8.73;;
22929;SDS011;11630;42.660;23.292;2023-06-22T00:39:25;8.93;;;8.03;;
22929;SDS011;11630;42.660;23.292;2023-06-22T00:41:56;10.90;;;7.73;;
22929;SDS011;11630;42.660;23.292;2023-06-22T00:44:31;12.00;;;8.70;;
22929;SDS011;11630;42.660;23.292;2023-06-22T00:47:02;11.57;;;7.80;;
22929;SDS011;11630;42.660;23.292;2023-06-22T00:49:37;9.73;;;8.70;;
22929;SDS011;11630;42.660;23.292;2023-06-22T00:52:07;11.30;;;8.90;;
22929;SDS011;11630;42.660;23.292;2023-06-22T00:54:40;14.70;;;8.80;;
22929;SDS011;11630;42.660;23.292;2023-06-22T00:57:13;9.87;;;8.57;;
22929;SDS011;11630;42.660;23.292;2023-06-22T00:59:44;9.33;;;8.20;;
22929;SDS011;11630;42.660;23.292;2023-06-22T01:02:16;9.73;;;8.23;;
22929;SDS011;11630;42.660;23.292;2023-06-22T01:04:47;10.67;;;8.93;;
22929;SDS011;11630;42.660;23.292;2023-06-22T01:07:27;13.30;;;8.97;;
22929;SDS011;11630;42.660;23.292;2023-06-22T01:10:07;9.97;;;8.50;;
22929;SDS011;11630;42.660;23.292;2023-06-22T01:12:38;14.27;;;10.13;;
22929;SDS011;11630;42.660;23.292;2023-06-22T01:15:10;12.37;;;9.40;;
22929;SDS011;11630;42.660;23.292;2023-06-22T01:17:45;10.57;;;8.57;;
22929;SDS011;11630;42.660;23.292;2023-06-22T01:20:17;14.00;;;9.83;;
22929;SDS011;11630;42.660;23.292;2023-06-22T01:28:45;9.73;;;8.83;;
22929;SDS011;11630;42.660;23.292;2023-06-22T01:31:26;11.10;;;8.63;;
22929;SDS011;11630;42.660;23.292;2023-06-22T01:34:01;10.40;;;7.90;;
22929;SDS011;11630;42.660;23.292;2023-06-22T01:36:33;11.27;;;8.40;;
22929;SDS011;11630;42.660;23.292;2023-06-22T01:39:03;9.67;;;8.40;;
22929;SDS011;11630;42.660;23.292;2023-06-22T01:41:37;10.57;;;9.50;;
22929;SDS011;11630;42.660;23.292;2023-06-22T01:44:10;10.37;;;9.03;;
22929;SDS011;11630;42.660;23.292;2023-06-22T01:46:42;12.07;;;9.50;;
22929;SDS011;11630;42.660;23.292;2023-06-22T01:49:14;10.57;;;8.87;;
22929;SDS011;11630;42.660;23.292;2023-06-22T01:51:45;14.50;;;8.37;;
22929;SDS011;11630;42.660;23.292;2023-06-22T01:54:16;10.03;;;9.10;;
22929;SDS011;11630;42.660;23.292;2023-06-22T01:56:46;12.00;;;9.33;;
22929;SDS011;11630;42.660;23.292;2023-06-22T01:59:18;16.50;;;10.73;;
22929;SDS011;11630;42.660;23.292;2023-06-22T02:02:02;12.70;;;8.90;;
22929;SDS011;11630;42.660;23.292;2023-06-22T02:04:37;14.70;;;9.30;;
22929;SDS011;11630;42.660;23.292;2023-06-22T02:07:15;11.57;;;10.00;;
22929;SDS011;11630;42.660;23.292;2023-06-22T02:09:46;11.67;;;9.20;;
22929;SDS011;11630;42.660;23.292;2023-06-22T02:12:23;11.07;;;9.30;;
22929;SDS011;11630;42.660;23.292;2023-06-22T02:14:50;9.47;;;8.57;;
22929;SDS011;11630;42.660;23.292;2023-06-22T02:17:21;10.90;;;9.30;;
22929;SDS011;11630;42.660;23.292;2023-06-22T02:19:52;13.00;;;9.57;;
22929;SDS011;11630;42.660;23.292;2023-06-22T02:22:24;10.80;;;9.80;;
22929;SDS011;11630;42.660;23.292;2023-06-22T02:24:55;13.33;;;10.00;;
22929;SDS011;11630;42.660;23.292;2023-06-22T02:27:27;10.70;;;8.83;;
22929;SDS011;11630;42.660;23.292;2023-06-22T02:29:58;11.53;;;9.53;;
22929;SDS011;11630;42.660;23.292;2023-06-22T02:32:29;12.80;;;8.90;;
22929;SDS011;11630;42.660;23.292;2023-06-22T02:35:00;12.63;;;8.93;;
22929;SDS011;11630;42.660;23.292;2023-06-22T02:37:37;12.83;;;8.57;;
22929;SDS011;11630;42.660;23.292;2023-06-22T02:40:06;15.30;;;9.90;;
22929;SDS011;11630;42.660;23.292;2023-06-22T02:42:37;12.27;;;9.17;;
22929;SDS011;11630;42.660;23.292;2023-06-22T02:45:07;12.43;;;10.20;;
22929;SDS011;11630;42.660;23.292;2023-06-22T02:47:39;12.00;;;9.87;;
22929;SDS011;11630;42.660;23.292;2023-06-22T02:50:09;15.53;;;9.93;;
22929;SDS011;11630;42.660;23.292;2023-06-22T02:52:40;11.80;;;9.23;;
22929;SDS011;11630;42.660;23.292;2023-06-22T02:55:10;11.43;;;9.40;;
22929;SDS011;11630;42.660;23.292;2023-06-22T02:57:42;12.40;;;10.17;;
22929;SDS011;11630;42.660;23.292;2023-06-22T03:00:13;11.60;;;10.40;;
22929;SDS011;11630;42.660;23.292;2023-06-22T03:02:46;14.30;;;10.63;;
22929;SDS011;11630;42.660;23.292;2023-06-22T03:05:17;10.70;;;9.60;;
22929;SDS011;11630;42.660;23.292;2023-06-22T03:07:51;12.37;;;10.17;;
22929;SDS011;11630;42.660;23.292;2023-06-22T03:10:24;13.00;;;9.50;;
22929;SDS011;11630;42.660;23.292;2023-06-22T03:12:54;12.10;;;10.70;;
22929;SDS011;11630;42.660;23.292;2023-06-22T03:15:25;13.50;;;10.07;;
22929;SDS011;11630;42.660;23.292;2023-06-22T03:17:56;16.37;;;9.97;;
22929;SDS011;11630;42.660;23.292;2023-06-22T03:20:27;19.23;;;9.90;;
22929;SDS011;11630;42.660;23.292;2023-06-22T03:22:57;14.37;;;10.90;;
22929;SDS011;11630;42.660;23.292;2023-06-22T03:25:28;11.80;;;9.70;;
22929;SDS011;11630;42.660;23.292;2023-06-22T03:27:59;13.00;;;10.37;;
22929;SDS011;11630;42.660;23.292;2023-06-22T03:30:30;13.13;;;10.13;;
22929;SDS011;11630;42.660;23.292;2023-06-22T03:33:01;16.97;;;10.27;;
22929;SDS011;11630;42.660;23.292;2023-06-22T03:35:31;16.53;;;10.50;;
22929;SDS011;11630;42.660;23.292;2023-06-22T03:38:02;17.40;;;10.23;;
22929;SDS011;11630;42.660;23.292;2023-06-22T03:40:33;12.07;;;9.80;;
22929;SDS011;11630;42.660;23.292;2023-06-22T03:43:04;14.57;;;10.37;;
22929;SDS011;11630;42.660;23.292;2023-06-22T03:45:35;15.70;;;10.93;;
22929;SDS011;11630;42.660;23.292;2023-06-22T03:48:06;13.23;;;11.57;;
22929;SDS011;11630;42.660;23.292;2023-06-22T03:50:36;15.03;;;10.33;;
22929;SDS011;11630;42.660;23.292;2023-06-22T03:53:08;14.03;;;9.97;;
22929;SDS011;11630;42.660;23.292;2023-06-22T03:55:42;14.77;;;11.60;;
22929;SDS011;11630;42.660;23.292;2023-06-22T03:58:19;13.30;;;11.47;;
22929;SDS011;11630;42.660;23.292;2023-06-22T04:00:50;16.20;;;12.40;;
22929;SDS011;11630;42.660;23.292;2023-06-22T04:03:21;20.53;;;11.70;;
22929;SDS011;11630;42.660;23.292;2023-06-22T04:05:51;13.67;;;10.97;;
22929;SDS011;11630;42.660;23.292;2023-06-22T04:08:22;14.80;;;10.60;;
22929;SDS011;11630;42.660;23.292;2023-06-22T04:10:54;13.00;;;10.63;;
22929;SDS011;11630;42.660;23.292;2023-06-22T04:13:27;17.10;;;11.13;;
22929;SDS011;11630;42.660;23.292;2023-06-22T04:15:58;19.57;;;10.90;;
22929;SDS011;11630;42.660;23.292;2023-06-22T04:18:28;17.13;;;11.30;;
22929;SDS011;11630;42.660;23.292;2023-06-22T04:20:59;15.47;;;10.90;;
22929;SDS011;11630;42.660;23.292;2023-06-22T04:23:31;12.30;;;11.10;;
22929;SDS011;11630;42.660;23.292;2023-06-22T04:26:01;14.70;;;11.13;;
22929;SDS011;11630;42.660;23.292;2023-06-22T04:28:32;13.80;;;12.40;;
22929;SDS011;11630;42.660;23.292;2023-06-22T04:31:03;16.57;;;12.73;;
22929;SDS011;11630;42.660;23.292;2023-06-22T04:33:33;15.23;;;12.20;;
22929;SDS011;11630;42.660;23.292;2023-06-22T04:36:04;19.80;;;13.50;;
22929;SDS011;11630;42.660;23.292;2023-06-22T04:38:36;21.93;;;13.90;;
22929;SDS011;11630;42.660;23.292;2023-06-22T04:41:06;22.83;;;13.43;;
22929;SDS011;11630;42.660;23.292;2023-06-22T04:43:37;14.40;;;12.23;;
22929;SDS011;11630;42.660;23.292;2023-06-22T04:46:08;16.10;;;13.43;;
22929;SDS011;11630;42.660;23.292;2023-06-22T04:48:38;20.03;;;13.27;;
22929;SDS011;11630;42.660;23.292;2023-06-22T04:51:09;19.60;;;13.87;;
22929;SDS011;11630;42.660;23.292;2023-06-22T04:53:40;18.37;;;13.67;;
22929;SDS011;11630;42.660;23.292;2023-06-22T04:56:11;22.70;;;13.17;;
22929;SDS011;11630;42.660;23.292;2023-06-22T04:58:42;26.73;;;14.67;;
22929;SDS011;11630;42.660;23.292;2023-06-22T05:01:13;21.93;;;14.83;;
22929;SDS011;11630;42.660;23.292;2023-06-22T05:03:44;19.20;;;13.33;;
22929;SDS011;11630;42.660;23.292;2023-06-22T05:06:15;16.67;;;14.07;;
22929;SDS011;11630;42.660;23.292;2023-06-22T05:08:46;17.33;;;13.13;;
22929;SDS011;11630;42.660;23.292;2023-06-22T05:11:18;25.07;;;14.97;;
22929;SDS011;11630;42.660;23.292;2023-06-22T05:13:51;28.27;;;14.93;;
22929;SDS011;11630;42.660;23.292;2023-06-22T05:16:22;21.77;;;14.40;;
22929;SDS011;11630;42.660;23.292;2023-06-22T05:18:54;23.13;;;14.13;;
22929;SDS011;11630;42.660;23.292;2023-06-22T05:21:26;23.47;;;13.87;;
22929;SDS011;11630;42.660;23.292;2023-06-22T05:23:59;22.37;;;14.50;;
22929;SDS011;11630;42.660;23.292;2023-06-22T05:26:30;28.33;;;14.13;;
22929;SDS011;11630;42.660;23.292;2023-06-22T05:29:02;21.20;;;14.13;;
22929;SDS011;11630;42.660;23.292;2023-06-22T05:31:33;27.77;;;13.33;;
22929;SDS011;11630;42.660;23.292;2023-06-22T05:34:03;21.87;;;13.70;;
22929;SDS011;11630;42.660;23.292;2023-06-22T05:36:34;17.53;;;13.53;;
22929;SDS011;11630;42.660;23.292;2023-06-22T05:39:11;22.30;;;14.00;;
22929;SDS011;11630;42.660;23.292;2023-06-22T05:41:44;14.13;;;12.50;;
22929;SDS011;11630;42.660;23.292;2023-06-22T05:44:15;33.30;;;13.73;;
22929;SDS011;11630;42.660;23.292;2023-06-22T05:46:45;20.53;;;13.07;;
22929;SDS011;11630;42.660;23.292;2023-06-22T05:49:16;16.60;;;13.37;;
22929;SDS011;11630;42.660;23.292;2023-06-22T05:51:48;16.93;;;13.60;;
22929;SDS011;11630;42.660;23.292;2023-06-22T05:54:18;19.63;;;13.83;;
22929;SDS011;11630;42.660;23.292;2023-06-22T05:56:49;14.63;;;13.03;;
22929;SDS011;11630;42.660;23.292;2023-06-22T05:59:20;19.13;;;13.43;;
22929;SDS011;11630;42.660;23.292;2023-06-22T06:01:51;19.70;;;13.63;;
22929;SDS011;11630;42.660;23.292;2023-06-22T06:04:22;15.20;;;12.17;;
22929;SDS011;11630;42.660;23.292;2023-06-22T06:06:53;19.37;;;13.87;;
22929;SDS011;11630;42.660;23.292;2023-06-22T06:09:22;17.23;;;13.33;;
22929;SDS011;11630;42.660;23.292;2023-06-22T06:11:53;16.53;;;13.20;;
22929;SDS011;11630;42.660;23.292;2023-06-22T06:14:22;16.37;;;12.23;;
22929;SDS011;11630;42.660;23.292;2023-06-22T06:16:53;15.70;;;12.90;;
22929;SDS011;11630;42.660;23.292;2023-06-22T06:19:24;21.37;;;13.40;;
22929;SDS011;11630;42.660;23.292;2023-06-22T06:21:53;15.60;;;13.57;;
22929;SDS011;11630;42.660;23.292;2023-06-22T06:24:25;19.93;;;13.93;;
22929;SDS011;11630;42.660;23.292;2023-06-22T06:26:54;14.53;;;12.80;;
22929;SDS011;11630;42.660;23.292;2023-06-22T06:29:25;17.13;;;14.10;;
22929;SDS011;11630;42.660;23.292;2023-06-22T06:31:56;17.10;;;13.00;;
22929;SDS011;11630;42.660;23.292;2023-06-22T06:34:26;17.47;;;12.43;;
22929;SDS011;11630;42.660;23.292;2023-06-22T06:36:57;17.80;;;12.70;;
22929;SDS011;11630;42.660;23.292;2023-06-22T06:39:28;19.77;;;12.60;;
22929;SDS011;11630;42.660;23.292;2023-06-22T06:42:03;23.93;;;13.47;;
22929;SDS011;11630;42.660;23.292;2023-06-22T06:44:35;24.10;;;13.67;;
22929;SDS011;11630;42.660;23.292;2023-06-22T06:47:06;68.97;;;18.87;;
22929;SDS011;11630;42.660;23.292;2023-06-22T06:49:36;19.00;;;11.77;;
22929;SDS011;11630;42.660;23.292;2023-06-22T06:52:07;17.10;;;12.83;;
22929;SDS011;11630;42.660;23.292;2023-06-22T06:54:45;20.67;;;12.17;;
22929;SDS011;11630;42.660;23.292;2023-06-22T06:57:16;15.37;;;12.13;;
22929;SDS011;11630;42.660;23.292;2023-06-22T06:59:48;22.17;;;12.70;;
22929;SDS011;11630;42.660;23.292;2023-06-22T07:02:19;14.87;;;12.10;;
22929;SDS011;11630;42.660;23.292;2023-06-22T07:04:51;27.70;;;13.00;;
22929;SDS011;11630;42.660;23.292;2023-06-22T07:07:25;19.77;;;12.30;;
22929;SDS011;11630;42.660;23.292;2023-06-22T07:09:56;18.03;;;11.17;;
22929;SDS011;11630;42.660;23.292;2023-06-22T07:12:27;13.93;;;11.63;;
22929;SDS011;11630;42.660;23.292;2023-06-22T07:15:04;20.73;;;11.57;;
22929;SDS011;11630;42.660;23.292;2023-06-22T07:17:36;17.45;;;11.80;;
22929;SDS011;11630;42.660;23.292;2023-06-22T07:20:07;19.27;;;12.10;;
22929;SDS011;11630;42.660;23.292;2023-06-22T07:22:42;17.02;;;9.60;;
22929;SDS011;11630;42.660;23.292;2023-06-22T07:25:12;11.90;;;10.45;;
22929;SDS011;11630;42.660;23.292;2023-06-22T07:27:57;12.60;;;10.50;;
22929;SDS011;11630;42.660;23.292;2023-06-22T07:30:15;9.98;;;9.08;;
22929;SDS011;11630;42.660;23.292;2023-06-22T07:32:46;15.50;;;10.50;;
22929;SDS011;11630;42.660;23.292;2023-06-22T07:35:21;15.50;;;9.95;;
22929;SDS011;11630;42.660;23.292;2023-06-22T07:37:52;25.23;;;11.48;;
22929;SDS011;11630;42.660;23.292;2023-06-22T07:40:22;14.40;;;11.57;;
22929;SDS011;11630;42.660;23.292;2023-06-22T07:42:53;12.90;;;10.70;;
22929;SDS011;11630;42.660;23.292;2023-06-22T07:45:24;13.68;;;10.75;;
22929;SDS011;11630;42.660;23.292;2023-06-22T07:47:54;16.07;;;11.20;;
22929;SDS011;11630;42.660;23.292;2023-06-22T07:50:24;13.13;;;11.12;;
22929;SDS011;11630;42.660;23.292;2023-06-22T07:52:55;16.83;;;12.47;;
22929;SDS011;11630;42.660;23.292;2023-06-22T07:55:26;26.05;;;12.60;;
22929;SDS011;11630;42.660;23.292;2023-06-22T07:58:01;15.68;;;13.08;;
22929;SDS011;11630;42.660;23.292;2023-06-22T08:00:35;17.57;;;12.73;;
22929;SDS011;11630;42.660;23.292;2023-06-22T08:03:09;14.80;;;11.78;;
22929;SDS011;11630;42.660;23.292;2023-06-22T08:05:43;21.55;;;11.33;;
22929;SDS011;11630;42.660;23.292;2023-06-22T08:08:14;13.55;;;10.30;;
22929;SDS011;11630;42.660;23.292;2023-06-22T08:10:45;15.60;;;12.30;;
22929;SDS011;11630;42.660;23.292;2023-06-22T08:13:16;17.37;;;10.73;;
22929;SDS011;11630;42.660;23.292;2023-06-22T08:15:47;26.10;;;12.70;;
22929;SDS011;11630;42.660;23.292;2023-06-22T08:18:18;17.15;;;10.40;;
22929;SDS011;11630;42.660;23.292;2023-06-22T08:20:49;12.30;;;10.72;;
22929;SDS011;11630;42.660;23.292;2023-06-22T08:23:20;13.60;;;10.68;;
22929;SDS011;11630;42.660;23.292;2023-06-22T08:25:51;15.00;;;10.45;;
22929;SDS011;11630;42.660;23.292;2023-06-22T08:28:22;13.93;;;9.93;;
22929;SDS011;11630;42.660;23.292;2023-06-22T08:30:52;15.10;;;11.08;;
22929;SDS011;11630;42.660;23.292;2023-06-22T08:33:23;25.55;;;11.12;;
22929;SDS011;11630;42.660;23.292;2023-06-22T08:35:54;15.90;;;10.48;;
22929;SDS011;11630;42.660;23.292;2023-06-22T08:38:26;12.85;;;11.40;;
22929;SDS011;11630;42.660;23.292;2023-06-22T08:40:57;13.55;;;10.60;;
22929;SDS011;11630;42.660;23.292;2023-06-22T08:43:27;10.82;;;9.88;;
22929;SDS011;11630;42.660;23.292;2023-06-22T08:45:58;17.17;;;11.78;;
22929;SDS011;11630;42.660;23.292;2023-06-22T08:48:29;14.13;;;11.30;;
22929;SDS011;11630;42.660;23.292;2023-06-22T08:51:01;24.55;;;11.25;;
22929;SDS011;11630;42.660;23.292;2023-06-22T08:53:32;12.47;;;10.08;;
22929;SDS011;11630;42.660;23.292;2023-06-22T08:56:03;14.23;;;10.38;;
22929;SDS011;11630;42.660;23.292;2023-06-22T08:58:33;11.73;;;9.90;;
22929;SDS011;11630;42.660;23.292;2023-06-22T09:01:04;12.33;;;9.98;;
22929;SDS011;11630;42.660;23.292;2023-06-22T09:03:35;13.98;;;9.58;;
22929;SDS011;11630;42.660;23.292;2023-06-22T09:06:06;11.60;;;9.60;;
22929;SDS011;11630;42.660;23.292;2023-06-22T09:08:37;12.70;;;8.38;;
22929;SDS011;11630;42.660;23.292;2023-06-22T09:11:08;11.70;;;8.45;;
22929;SDS011;11630;42.660;23.292;2023-06-22T09:13:40;9.33;;;8.30;;
22929;SDS011;11630;42.660;23.292;2023-06-22T09:16:12;9.73;;;8.78;;
22929;SDS011;11630;42.660;23.292;2023-06-22T09:18:46;12.88;;;8.05;;
22929;SDS011;11630;42.660;23.292;2023-06-22T09:21:16;8.63;;;7.85;;
22929;SDS011;11630;42.660;23.292;2023-06-22T09:23:47;8.15;;;7.12;;
22929;SDS011;11630;42.660;23.292;2023-06-22T09:26:20;9.05;;;8.15;;
22929;SDS011;11630;42.660;23.292;2023-06-22T09:28:51;9.83;;;8.23;;
22929;SDS011;11630;42.660;23.292;2023-06-22T09:31:21;11.22;;;9.53;;
22929;SDS011;11630;42.660;23.292;2023-06-22T09:33:53;8.15;;;7.35;;
22929;SDS011;11630;42.660;23.292;2023-06-22T09:36:23;10.30;;;8.25;;
22929;SDS011;11630;42.660;23.292;2023-06-22T09:38:53;9.28;;;8.38;;
22929;SDS011;11630;42.660;23.292;2023-06-22T09:41:24;10.60;;;8.95;;
22929;SDS011;11630;42.660;23.292;2023-06-22T09:43:54;11.83;;;8.43;;
22929;SDS011;11630;42.660;23.292;2023-06-22T09:46:25;9.65;;;8.75;;
22929;SDS011;11630;42.660;23.292;2023-06-22T09:48:56;13.15;;;8.90;;
22929;SDS011;11630;42.660;23.292;2023-06-22T09:51:26;8.30;;;7.47;;
22929;SDS011;11630;42.660;23.292;2023-06-22T09:53:57;9.48;;;8.58;;
22929;SDS011;11630;42.660;23.292;2023-06-22T09:56:28;12.47;;;8.90;;
22929;SDS011;11630;42.660;23.292;2023-06-22T09:58:59;9.45;;;8.45;;
22929;SDS011;11630;42.660;23.292;2023-06-22T10:01:30;11.18;;;7.97;;
22929;SDS011;11630;42.660;23.292;2023-06-22T10:04:02;8.85;;;7.83;;
22929;SDS011;11630;42.660;23.292;2023-06-22T10:06:32;9.50;;;7.95;;
22929;SDS011;11630;42.660;23.292;2023-06-22T10:09:03;24.98;;;9.25;;
22929;SDS011;11630;42.660;23.292;2023-06-22T10:11:34;8.23;;;7.53;;
22929;SDS011;11630;42.660;23.292;2023-06-22T10:14:06;8.83;;;7.92;;
22929;SDS011;11630;42.660;23.292;2023-06-22T10:16:37;11.70;;;8.30;;
22929;SDS011;11630;42.660;23.292;2023-06-22T10:19:08;9.28;;;8.35;;
22929;SDS011;11630;42.660;23.292;2023-06-22T10:21:39;8.93;;;8.05;;
22929;SDS011;11630;42.660;23.292;2023-06-22T10:24:10;9.98;;;8.83;;
22929;SDS011;11630;42.660;23.292;2023-06-22T10:26:41;19.73;;;8.73;;
22929;SDS011;11630;42.660;23.292;2023-06-22T10:29:12;9.50;;;8.50;;
22929;SDS011;11630;42.660;23.292;2023-06-22T10:31:43;9.05;;;8.15;;
22929;SDS011;11630;42.660;23.292;2023-06-22T10:34:13;9.30;;;8.50;;
22929;SDS011;11630;42.660;23.292;2023-06-22T10:36:43;10.78;;;9.20;;
22929;SDS011;11630;42.660;23.292;2023-06-22T10:39:14;13.95;;;9.33;;
22929;SDS011;11630;42.660;23.292;2023-06-22T10:41:44;9.43;;;8.38;;
22929;SDS011;11630;42.660;23.292;2023-06-22T10:44:18;12.35;;;9.48;;
22929;SDS011;11630;42.660;23.292;2023-06-22T10:46:49;15.78;;;11.25;;
22929;SDS011;11630;42.660;23.292;2023-06-22T10:49:20;10.08;;;9.08;;
22929;SDS011;11630;42.660;23.292;2023-06-22T10:51:51;11.83;;;9.38;;
22929;SDS011;11630;42.660;23.292;2023-06-22T10:54:23;10.93;;;8.68;;
22929;SDS011;11630;42.660;23.292;2023-06-22T10:56:54;12.73;;;8.98;;
22929;SDS011;11630;42.660;23.292;2023-06-22T10:59:25;11.68;;;8.80;;
22929;SDS011;11630;42.660;23.292;2023-06-22T11:01:56;13.53;;;9.05;;
22929;SDS011;11630;42.660;23.292;2023-06-22T11:04:27;10.48;;;9.45;;
22929;SDS011;11630;42.660;23.292;2023-06-22T11:06:57;9.15;;;8.35;;
22929;SDS011;11630;42.660;23.292;2023-06-22T11:09:30;12.07;;;8.23;;
22929;SDS011;11630;42.660;23.292;2023-06-22T11:12:04;10.60;;;8.48;;
22929;SDS011;11630;42.660;23.292;2023-06-22T11:14:34;10.10;;;8.40;;
22929;SDS011;11630;42.660;23.292;2023-06-22T11:17:08;9.83;;;8.78;;
22929;SDS011;11630;42.660;23.292;2023-06-22T11:19:40;11.57;;;9.88;;
22929;SDS011;11630;42.660;23.292;2023-06-22T11:22:10;13.58;;;9.25;;
22929;SDS011;11630;42.660;23.292;2023-06-22T11:24:41;13.18;;;8.68;;
22929;SDS011;11630;42.660;23.292;2023-06-22T11:27:11;11.18;;;8.53;;
22929;SDS011;11630;42.660;23.292;2023-06-22T11:29:42;9.83;;;8.45;;
22929;SDS011;11630;42.660;23.292;2023-06-22T11:32:14;9.65;;;8.75;;
22929;SDS011;11630;42.660;23.292;2023-06-22T11:34:45;13.93;;;10.25;;
22929;SDS011;11630;42.660;23.292;2023-06-22T11:37:17;9.28;;;8.30;;
22929;SDS011;11630;42.660;23.292;2023-06-22T11:39:48;10.13;;;9.08;;
22929;SDS011;11630;42.660;23.292;2023-06-22T11:42:19;16.20;;;9.60;;
22929;SDS011;11630;42.660;23.292;2023-06-22T11:44:48;14.98;;;9.45;;
22929;SDS011;11630;42.660;23.292;2023-06-22T11:47:19;20.05;;;10.38;;
22929;SDS011;11630;42.660;23.292;2023-06-22T11:49:49;21.35;;;9.73;;
22929;SDS011;11630;42.660;23.292;2023-06-22T11:52:21;16.48;;;9.90;;
22929;SDS011;11630;42.660;23.292;2023-06-22T11:54:52;10.28;;;9.23;;
22929;SDS011;11630;42.660;23.292;2023-06-22T11:57:23;10.10;;;8.58;;
22929;SDS011;11630;42.660;23.292;2023-06-22T11:59:54;12.58;;;9.13;;
22929;SDS011;11630;42.660;23.292;2023-06-22T12:02:25;13.28;;;10.50;;
22929;SDS011;11630;42.660;23.292;2023-06-22T12:04:55;15.98;;;10.10;;
22929;SDS011;11630;42.660;23.292;2023-06-22T12:07:25;18.27;;;10.88;;
22929;SDS011;11630;42.660;23.292;2023-06-22T12:09:56;21.48;;;9.98;;
22929;SDS011;11630;42.660;23.292;2023-06-22T12:12:27;13.53;;;9.98;;
22929;SDS011;11630;42.660;23.292;2023-06-22T12:14:58;11.35;;;9.93;;
22929;SDS011;11630;42.660;23.292;2023-06-22T12:17:32;15.15;;;10.65;;
22929;SDS011;11630;42.660;23.292;2023-06-22T12:20:03;11.75;;;10.15;;
22929;SDS011;11630;42.660;23.292;2023-06-22T12:22:34;13.53;;;10.45;;
22929;SDS011;11630;42.660;23.292;2023-06-22T12:25:04;12.88;;;10.28;;
22929;SDS011;11630;42.660;23.292;2023-06-22T12:27:36;16.50;;;11.43;;
22929;SDS011;11630;42.660;23.292;2023-06-22T12:30:06;17.65;;;12.58;;
22929;SDS011;11630;42.660;23.292;2023-06-22T12:32:36;15.60;;;11.17;;
22929;SDS011;11630;42.660;23.292;2023-06-22T12:35:07;10.93;;;9.40;;
22929;SDS011;11630;42.660;23.292;2023-06-22T12:37:39;14.10;;;9.40;;
22929;SDS011;11630;42.660;23.292;2023-06-22T12:40:12;14.57;;;9.33;;
22929;SDS011;11630;42.660;23.292;2023-06-22T12:42:44;18.80;;;10.80;;
22929;SDS011;11630;42.660;23.292;2023-06-22T12:45:15;12.60;;;10.77;;
22929;SDS011;11630;42.660;23.292;2023-06-22T12:47:46;14.80;;;9.57;;
22929;SDS011;11630;42.660;23.292;2023-06-22T12:50:16;13.97;;;10.20;;
22929;SDS011;11630;42.660;23.292;2023-06-22T12:52:47;15.63;;;10.50;;
22929;SDS011;11630;42.660;23.292;2023-06-22T12:55:18;12.13;;;9.27;;
22929;SDS011;11630;42.660;23.292;2023-06-22T12:57:48;13.63;;;9.13;;
22929;SDS011;11630;42.660;23.292;2023-06-22T13:00:20;13.93;;;8.87;;
22929;SDS011;11630;42.660;23.292;2023-06-22T13:02:49;16.87;;;9.17;;
22929;SDS011;11630;42.660;23.292;2023-06-22T13:05:20;12.30;;;10.63;;
22929;SDS011;11630;42.660;23.292;2023-06-22T13:07:51;20.47;;;11.63;;
22929;SDS011;11630;42.660;23.292;2023-06-22T13:10:24;14.17;;;9.77;;
22929;SDS011;11630;42.660;23.292;2023-06-22T13:12:54;15.40;;;10.30;;
22929;SDS011;11630;42.660;23.292;2023-06-22T13:15:26;13.20;;;10.43;;
22929;SDS011;11630;42.660;23.292;2023-06-22T13:18:00;16.50;;;9.73;;
22929;SDS011;11630;42.660;23.292;2023-06-22T13:20:31;16.00;;;10.67;;
22929;SDS011;11630;42.660;23.292;2023-06-22T13:23:02;30.50;;;11.57;;
22929;SDS011;11630;42.660;23.292;2023-06-22T13:25:36;18.07;;;12.70;;
22929;SDS011;11630;42.660;23.292;2023-06-22T13:28:08;11.30;;;10.20;;
22929;SDS011;11630;42.660;23.292;2023-06-22T13:30:40;18.97;;;11.20;;
22929;SDS011;11630;42.660;23.292;2023-06-22T13:33:10;29.67;;;12.13;;
22929;SDS011;11630;42.660;23.292;2023-06-22T13:35:41;18.80;;;10.70;;
22929;SDS011;11630;42.660;23.292;2023-06-22T13:38:11;23.70;;;11.47;;
22929;SDS011;11630;42.660;23.292;2023-06-22T13:40:42;11.50;;;9.60;;
22929;SDS011;11630;42.660;23.292;2023-06-22T13:43:12;13.23;;;10.07;;
22929;SDS011;11630;42.660;23.292;2023-06-22T13:45:47;18.63;;;11.40;;
22929;SDS011;11630;42.660;23.292;2023-06-22T13:48:18;12.77;;;10.97;;
22929;SDS011;11630;42.660;23.292;2023-06-22T13:50:49;13.67;;;10.20;;
22929;SDS011;11630;42.660;23.292;2023-06-22T13:53:19;13.67;;;10.37;;
22929;SDS011;11630;42.660;23.292;2023-06-22T13:55:50;10.10;;;8.67;;
22929;SDS011;11630;42.660;23.292;2023-06-22T13:58:21;9.20;;;8.20;;
22929;SDS011;11630;42.660;23.292;2023-06-22T14:00:52;14.00;;;9.27;;
22929;SDS011;11630;42.660;23.292;2023-06-22T14:03:23;14.73;;;9.27;;
22929;SDS011;11630;42.660;23.292;2023-06-22T14:05:54;14.17;;;8.10;;
22929;SDS011;11630;42.660;23.292;2023-06-22T14:08:24;11.43;;;8.53;;
22929;SDS011;11630;42.660;23.292;2023-06-22T14:10:56;11.07;;;8.83;;
22929;SDS011;11630;42.660;23.292;2023-06-22T14:13:27;14.10;;;9.87;;
22929;SDS011;11630;42.660;23.292;2023-06-22T14:16:05;15.93;;;10.47;;
22929;SDS011;11630;42.660;23.292;2023-06-22T14:18:36;20.13;;;10.07;;
22929;SDS011;11630;42.660;23.292;2023-06-22T14:21:07;17.67;;;9.53;;
22929;SDS011;11630;42.660;23.292;2023-06-22T14:23:37;21.73;;;9.73;;
22929;SDS011;11630;42.660;23.292;2023-06-22T14:26:08;12.63;;;9.43;;
22929;SDS011;11630;42.660;23.292;2023-06-22T14:28:39;17.93;;;9.33;;
22929;SDS011;11630;42.660;23.292;2023-06-22T14:31:10;12.67;;;8.70;;
22929;SDS011;11630;42.660;23.292;2023-06-22T14:33:45;16.20;;;10.77;;
22929;SDS011;11630;42.660;23.292;2023-06-22T14:36:16;14.67;;;8.57;;
22929;SDS011;11630;42.660;23.292;2023-06-22T14:38:47;12.33;;;9.30;;
22929;SDS011;11630;42.660;23.292;2023-06-22T14:41:19;10.90;;;9.60;;
22929;SDS011;11630;42.660;23.292;2023-06-22T14:43:50;15.70;;;9.53;;
22929;SDS011;11630;42.660;23.292;2023-06-22T14:46:21;14.57;;;9.83;;